sensor_id;sensor_type;location;lat;lon;timestamp;pressure;altitude;pressure_sealevel;temperature;humidity
20105;BME280;10212;42.714;23.310;2023-02-12T00:07:09;96167.69;;;-0.98;51.78
20105;BME280;10212;42.714;23.310;2023-02-12T00:17:09;96167.59;;;-1.10;52.11
20105;BME280;10212;42.714;23.310;2023-02-12T00:27:10;96168.63;;;-1.25;53.37
20105;BME280;10212;42.714;23.310;2023-02-12T00:37:10;96150.59;;;-1.37;53.05
20105;BME280;10212;42.714;23.310;2023-02-12T00:47:10;96139.97;;;-1.43;52.79
20105;BME280;10212;42.714;23.310;2023-02-12T00:57:11;96121.41;;;-1.34;53.11
20105;BME280;10212;42.714;23.310;2023-02-12T01:07:11;96126.66;;;-1.23;52.79
20105;BME280;10212;42.714;23.310;2023-02-12T01:17:11;96133.00;;;-1.15;52.50
20105;BME280;10212;42.714;23.310;2023-02-12T01:27:12;96144.97;;;-1.29;53.26
20105;BME280;10212;42.714;23.310;2023-02-12T01:37:12;96142.19;;;-1.65;55.31
20105;BME280;10212;42.714;23.310;2023-02-12T01:47:16;96116.88;;;-1.96;57.13
20105;BME280;10212;42.714;23.310;2023-02-12T01:57:18;96106.06;;;-2.14;57.58
20105;BME280;10212;42.714;23.310;2023-02-12T02:07:19;96116.47;;;-2.30;59.30
20105;BME280;10212;42.714;23.310;2023-02-12T02:27:37;96110.72;;;-2.61;62.72
20105;BME280;10212;42.714;23.310;2023-02-12T02:37:40;96106.34;;;-2.59;63.30
20105;BME280;10212;42.714;23.310;2023-02-12T02:47:49;96111.94;;;-2.39;62.56
20105;BME280;10212;42.714;23.310;2023-02-12T02:57:56;96113.06;;;-2.16;61.53
20105;BME280;10212;42.714;23.310;2023-02-12T03:08:00;96123.09;;;-2.00;61.18
20105;BME280;10212;42.714;23.310;2023-02-12T03:18:08;96111.66;;;-2.07;61.66
20105;BME280;10212;42.714;23.310;2023-02-12T03:28:26;96100.06;;;-2.00;61.38
20105;BME280;10212;42.714;23.310;2023-02-12T03:38:45;96102.97;;;-1.91;61.18
20105;BME280;10212;42.714;23.310;2023-02-12T03:48:57;96094.09;;;-1.60;59.40
20105;BME280;10212;42.714;23.310;2023-02-12T03:58:59;96090.84;;;-1.49;59.27
20105;BME280;10212;42.714;23.310;2023-02-12T04:09:02;96088.97;;;-1.47;59.50
20105;BME280;10212;42.714;23.310;2023-02-12T04:19:02;96098.69;;;-1.52;59.72
20105;BME280;10212;42.714;23.310;2023-02-12T04:39:14;96110.38;;;-1.48;60.34
20105;BME280;10212;42.714;23.310;2023-02-12T04:49:19;96116.44;;;-1.49;60.70
20105;BME280;10212;42.714;23.310;2023-02-12T04:59:19;96121.94;;;-1.29;60.45
20105;BME280;10212;42.714;23.310;2023-02-12T05:09:20;96122.94;;;-0.92;59.12
20105;BME280;10212;42.714;23.310;2023-02-12T05:19:20;96121.44;;;-0.70;58.25
20105;BME280;10212;42.714;23.310;2023-02-12T05:29:21;96140.28;;;-0.58;58.51
20105;BME280;10212;42.714;23.310;2023-02-12T05:39:21;96157.28;;;-0.57;59.45
20105;BME280;10212;42.714;23.310;2023-02-12T05:49:21;96158.50;;;-0.63;60.84
20105;BME280;10212;42.714;23.310;2023-02-12T05:59:22;96170.03;;;-0.82;64.01
20105;BME280;10212;42.714;23.310;2023-02-12T06:09:23;96178.53;;;-1.07;69.24
20105;BME280;10212;42.714;23.310;2023-02-12T06:19:23;96193.91;;;-0.94;70.79
20105;BME280;10212;42.714;23.310;2023-02-12T06:29:24;96187.25;;;-0.84;74.08
20105;BME280;10212;42.714;23.310;2023-02-12T06:39:24;96187.84;;;-0.80;76.96
20105;BME280;10212;42.714;23.310;2023-02-12T06:49:24;96183.97;;;-0.86;78.36
20105;BME280;10212;42.714;23.310;2023-02-12T06:59:25;96190.19;;;-0.77;78.97
20105;BME280;10212;42.714;23.310;2023-02-12T07:09:25;96197.56;;;-0.73;78.76
20105;BME280;10212;42.714;23.310;2023-02-12T07:19:26;96204.75;;;-0.65;78.24
20105;BME280;10212;42.714;23.310;2023-02-12T07:29:26;96194.41;;;-0.76;78.60
20105;BME280;10212;42.714;23.310;2023-02-12T07:39:27;96204.75;;;-0.78;78.30
20105;BME280;10212;42.714;23.310;2023-02-12T07:49:27;96226.38;;;-0.82;78.91
20105;BME280;10212;42.714;23.310;2023-02-12T07:59:27;96229.22;;;-1.13;80.69
20105;BME280;10212;42.714;23.310;2023-02-12T08:09:28;96219.72;;;-1.11;81.36
20105;BME280;10212;42.714;23.310;2023-02-12T08:19:30;96213.69;;;-0.97;81.68
20105;BME280;10212;42.714;23.310;2023-02-12T08:29:30;96230.34;;;-0.78;81.06
20105;BME280;10212;42.714;23.310;2023-02-12T08:39:30;96234.75;;;-0.54;79.95
20105;BME280;10212;42.714;23.310;2023-02-12T08:49:31;96251.47;;;-0.61;80.72
20105;BME280;10212;42.714;23.310;2023-02-12T08:59:31;96255.66;;;-0.34;78.73
20105;BME280;10212;42.714;23.310;2023-02-12T09:09:31;96279.16;;;-0.16;78.32
20105;BME280;10212;42.714;23.310;2023-02-12T09:19:32;96271.50;;;0.09;77.54
20105;BME280;10212;42.714;23.310;2023-02-12T09:29:32;96276.72;;;0.45;76.12
20105;BME280;10212;42.714;23.310;2023-02-12T09:39:33;96273.41;;;0.67;75.58
20105;BME280;10212;42.714;23.310;2023-02-12T09:49:40;96291.28;;;1.05;74.42
20105;BME280;10212;42.714;23.310;2023-02-12T09:59:48;96300.75;;;1.16;73.70
20105;BME280;10212;42.714;23.310;2023-02-12T10:30:50;96296.81;;;1.35;73.51
20105;BME280;10212;42.714;23.310;2023-02-12T10:40:52;96288.03;;;2.06;71.11
20105;BME280;10212;42.714;23.310;2023-02-12T10:51:08;96285.09;;;2.55;68.41
20105;BME280;10212;42.714;23.310;2023-02-12T11:01:19;96289.78;;;2.61;67.58
20105;BME280;10212;42.714;23.310;2023-02-12T11:11:22;96297.25;;;2.64;67.57
20105;BME280;10212;42.714;23.310;2023-02-12T11:21:26;96279.38;;;3.27;65.25
20105;BME280;10212;42.714;23.310;2023-02-12T11:31:29;96278.69;;;3.56;64.52
20105;BME280;10212;42.714;23.310;2023-02-12T11:41:38;96279.94;;;3.62;63.59
20105;BME280;10212;42.714;23.310;2023-02-12T11:51:40;96272.72;;;3.56;63.57
20105;BME280;10212;42.714;23.310;2023-02-12T12:01:40;96279.31;;;3.48;64.59
20105;BME280;10212;42.714;23.310;2023-02-12T12:32:29;96281.97;;;3.58;64.25
20105;BME280;10212;42.714;23.310;2023-02-12T12:42:59;96289.44;;;3.61;64.55
20105;BME280;10212;42.714;23.310;2023-02-12T12:53:17;96295.59;;;3.39;65.13
20105;BME280;10212;42.714;23.310;2023-02-12T13:13:47;96318.72;;;3.08;66.11
20105;BME280;10212;42.714;23.310;2023-02-12T13:33:59;96314.28;;;3.94;63.29
20105;BME280;10212;42.714;23.310;2023-02-12T14:25:25;96382.75;;;2.58;68.60
20105;BME280;10212;42.714;23.310;2023-02-12T14:55:31;96423.03;;;2.36;70.57
20105;BME280;10212;42.714;23.310;2023-02-12T15:26:15;96469.69;;;1.61;75.12
20105;BME280;10212;42.714;23.310;2023-02-12T15:36:19;96492.81;;;1.50;76.20
20105;BME280;10212;42.714;23.310;2023-02-12T15:46:21;96501.94;;;1.29;77.02
20105;BME280;10212;42.714;23.310;2023-02-12T15:56:23;96512.53;;;1.00;78.62
20105;BME280;10212;42.714;23.310;2023-02-12T16:06:28;96538.56;;;0.95;79.59
20105;BME280;10212;42.714;23.310;2023-02-12T16:16:42;96548.13;;;0.93;80.26
20105;BME280;10212;42.714;23.310;2023-02-12T16:26:45;96566.97;;;1.05;80.38
20105;BME280;10212;42.714;23.310;2023-02-12T16:36:46;96587.34;;;0.95;80.98
20105;BME280;10212;42.714;23.310;2023-02-12T16:46:51;96600.09;;;0.97;81.03
20105;BME280;10212;42.714;23.310;2023-02-12T16:56:52;96604.91;;;0.89;81.49
20105;BME280;10212;42.714;23.310;2023-02-12T17:06:53;96617.66;;;0.90;81.38
20105;BME280;10212;42.714;23.310;2023-02-12T17:16:54;96642.03;;;0.84;81.65
20105;BME280;10212;42.714;23.310;2023-02-12T17:26:57;96651.97;;;0.89;81.44
20105;BME280;10212;42.714;23.310;2023-02-12T17:36:58;96677.56;;;0.78;82.17
20105;BME280;10212;42.714;23.310;2023-02-12T17:46:58;96681.34;;;0.72;82.13
20105;BME280;10212;42.714;23.310;2023-02-12T17:56:59;96684.53;;;0.76;82.41
20105;BME280;10212;42.714;23.310;2023-02-12T18:06:59;96702.09;;;0.82;82.40
20105;BME280;10212;42.714;23.310;2023-02-12T18:17:00;96691.00;;;0.81;82.42
20105;BME280;10212;42.714;23.310;2023-02-12T18:27:02;96697.69;;;0.84;82.76
20105;BME280;10212;42.714;23.310;2023-02-12T18:37:02;96700.47;;;0.81;82.58
20105;BME280;10212;42.714;23.310;2023-02-12T18:47:03;96703.66;;;0.84;82.35
20105;BME280;10212;42.714;23.310;2023-02-12T18:57:03;96737.16;;;0.83;82.19
20105;BME280;10212;42.714;23.310;2023-02-12T19:07:04;96748.41;;;0.67;82.80
20105;BME280;10212;42.714;23.310;2023-02-12T19:17:04;96749.03;;;0.58;83.12
20105;BME280;10212;42.714;23.310;2023-02-12T19:27:04;96747.97;;;0.47;84.17
20105;BME280;10212;42.714;23.310;2023-02-12T19:37:05;96756.13;;;0.40;84.32
20105;BME280;10212;42.714;23.310;2023-02-12T19:47:07;96766.75;;;0.20;85.26
20105;BME280;10212;42.714;23.310;2023-02-12T19:57:08;96775.59;;;0.02;86.25
20105;BME280;10212;42.714;23.310;2023-02-12T20:07:08;96790.56;;;-0.20;87.79
20105;BME280;10212;42.714;23.310;2023-02-12T20:17:09;96790.66;;;-0.36;89.47
20105;BME280;10212;42.714;23.310;2023-02-12T20:27:09;96797.78;;;-0.56;90.97
20105;BME280;10212;42.714;23.310;2023-02-12T20:37:11;96799.06;;;-0.63;91.42
20105;BME280;10212;42.714;23.310;2023-02-12T20:47:14;96805.53;;;-0.72;91.59
20105;BME280;10212;42.714;23.310;2023-02-12T20:57:14;96810.56;;;-0.70;92.10
20105;BME280;10212;42.714;23.310;2023-02-12T21:07:15;96824.31;;;-0.71;92.21
20105;BME280;10212;42.714;23.310;2023-02-12T21:17:15;96831.94;;;-0.86;92.65
20105;BME280;10212;42.714;23.310;2023-02-12T21:27:15;96838.78;;;-1.01;93.78
20105;BME280;10212;42.714;23.310;2023-02-12T21:37:16;96854.50;;;-1.24;95.32
20105;BME280;10212;42.714;23.310;2023-02-12T21:47:16;96861.03;;;-1.34;96.72
20105;BME280;10212;42.714;23.310;2023-02-12T21:57:16;96877.25;;;-1.50;97.91
20105;BME280;10212;42.714;23.310;2023-02-12T22:07:19;96878.06;;;-1.65;99.26
20105;BME280;10212;42.714;23.310;2023-02-12T22:17:20;96890.75;;;-1.80;100.00
20105;BME280;10212;42.714;23.310;2023-02-12T22:27:20;96887.84;;;-1.90;100.00
20105;BME280;10212;42.714;23.310;2023-02-12T22:37:20;96892.56;;;-1.98;100.00
20105;BME280;10212;42.714;23.310;2023-02-12T22:47:22;96902.25;;;-2.05;100.00
20105;BME280;10212;42.714;23.310;2023-02-12T22:57:23;96905.13;;;-2.11;100.00
20105;BME280;10212;42.714;23.310;2023-02-12T23:07:23;96906.09;;;-2.14;100.00
20105;BME280;10212;42.714;23.310;2023-02-12T23:17:23;96913.09;;;-2.18;100.00
20105;BME280;10212;42.714;23.310;2023-02-12T23:27:24;96921.53;;;-2.15;100.00
20105;BME280;10212;42.714;23.310;2023-02-12T23:37:24;96931.63;;;-2.12;100.00
20105;BME280;10212;42.714;23.310;2023-02-12T23:47:24;96945.44;;;-2.16;100.00
20105;BME280;10212;42.714;23.310;2023-02-12T23:57:25;96937.47;;;-2.28;100.00
